Marchand, Pennsylvania
Current Conditions -  °F | °C
As of 10:55 AM on Friday 24 Oct 2014 (Local Time) from KIDI Reporting Station
Overcast Overcast  
Wind Chill:   Ceiling: 1900
Heat Index:   Visibility: 10mi
Dew Point:   Wind: 8mph
Humidity: 76%   Direction: 300°WNW
Pressure: 30.12"   Gusts: NA
Location:  40.86°N, 79.02°W
Report Text: KIDI 241455Z AUTO 30007KT 10SM BKN019 OVC023 09/05 A3012 RMK A01
Loading
Personal Weather Stations






























Interactive Weather Map
Tropical Storm Tracking
New forecast layout! Learn more

10-Day Weather Forecast

Advertisements
Track Severe Weather on mobile